createdAt,value
2022-09-04T00:01:18.157Z,11.22
2022-09-04T00:03:55.889Z,11.30
2022-09-04T00:06:34.346Z,11.26
2022-09-04T00:09:29.163Z,11.28
2022-09-04T00:12:05.756Z,11.19
2022-09-04T00:14:54.159Z,11.20
2022-09-04T00:17:39.290Z,11.23
2022-09-04T00:20:39.102Z,11.21
2022-09-04T00:23:21.057Z,11.21
2022-09-04T00:26:03.137Z,11.18
2022-09-04T00:28:36.008Z,11.16
2022-09-04T00:31:14.127Z,11.11
2022-09-04T00:33:55.472Z,11.05
2022-09-04T00:36:28.226Z,11.08
2022-09-04T00:39:03.431Z,11.06
2022-09-04T00:42:05.780Z,11.06
2022-09-04T00:44:54.326Z,11.04
2022-09-04T00:47:53.342Z,11.03
2022-09-04T00:50:41.678Z,11.01
2022-09-04T00:53:29.952Z,11.00
2022-09-04T00:56:25.506Z,11.00
2022-09-04T00:59:33.892Z,11.01
2022-09-04T01:02:25.661Z,11.00
2022-09-04T01:05:19.835Z,11.00
2022-09-04T01:08:08.146Z,11.00
2022-09-04T01:11:08.660Z,10.99
2022-09-04T01:14:03.620Z,10.98
2022-09-04T01:16:46.866Z,10.90
2022-09-04T01:19:47.721Z,10.96
2022-09-04T01:23:00.078Z,10.96
2022-09-04T01:26:01.662Z,10.98
2022-09-04T01:29:06.425Z,10.99
2022-09-04T01:31:55.361Z,10.96
2022-09-04T01:34:35.443Z,10.95
2022-09-04T01:37:41.403Z,10.95
2022-09-04T01:40:23.775Z,10.98
2022-09-04T01:43:13.296Z,10.92
2022-09-04T01:45:57.736Z,10.89
2022-09-04T01:49:07.719Z,10.89
2022-09-04T01:52:01.079Z,10.88
2022-09-04T01:54:53.919Z,10.84
2022-09-04T01:57:30.205Z,10.86
2022-09-04T02:00:08.445Z,10.84
2022-09-04T02:03:06.170Z,10.84
2022-09-04T02:06:02.595Z,10.80
2022-09-04T02:08:51.092Z,10.77
2022-09-04T02:11:32.330Z,10.76
2022-09-04T02:14:29.341Z,10.75
2022-09-04T02:17:11.396Z,10.75
2022-09-04T02:20:03.589Z,10.73
2022-09-04T02:23:18.229Z,10.72
2022-09-04T02:26:01.932Z,10.68
2022-09-04T02:28:41.109Z,10.63
2022-09-04T02:31:30.421Z,10.63
2022-09-04T02:34:06.942Z,10.59
2022-09-04T02:37:03.781Z,10.56
2022-09-04T02:39:54.057Z,10.55
2022-09-04T02:43:16.617Z,10.53
2022-09-04T02:46:07.844Z,10.51
2022-09-04T02:48:38.260Z,10.48
2022-09-04T02:51:33.455Z,10.45
2022-09-04T02:54:45.266Z,10.41
2022-09-04T02:57:39.585Z,10.39
2022-09-04T03:00:21.494Z,10.35
2022-09-04T03:03:07.135Z,10.34
2022-09-04T03:05:56.146Z,10.33
2022-09-04T03:08:43.786Z,10.33
2022-09-04T03:11:31.427Z,10.31
2022-09-04T03:14:12.500Z,10.30
2022-09-04T03:16:50.636Z,10.29
2022-09-04T03:19:36.645Z,10.28
2022-09-04T03:22:30.493Z,10.26
2022-09-04T03:25:27.970Z,10.22
2022-09-04T03:27:58.241Z,10.19
2022-09-04T03:30:32.399Z,10.18
2022-09-04T03:33:29.923Z,10.18
2022-09-04T03:36:21.192Z,10.18
2022-09-04T03:38:54.120Z,10.15
2022-09-04T03:41:30.630Z,10.14
2022-09-04T03:44:10.512Z,10.12
2022-09-04T03:46:46.367Z,10.11
2022-09-04T03:49:42.997Z,10.12
2022-09-04T03:52:56.039Z,10.13
2022-09-04T03:55:42.325Z,10.13
2022-09-04T03:58:38.899Z,10.12
2022-09-04T04:01:39.832Z,10.12
2022-09-04T04:04:28.528Z,10.13
2022-09-04T04:07:07.923Z,10.12
2022-09-04T04:10:08.765Z,10.13
2022-09-04T04:12:53.918Z,10.12
2022-09-04T04:15:43.193Z,10.11
2022-09-04T04:18:43.764Z,10.11
2022-09-04T04:21:55.765Z,10.13
2022-09-04T04:24:49.061Z,10.12
2022-09-04T04:27:38.010Z,10.12
2022-09-04T04:30:17.830Z,10.12
2022-09-04T04:32:50.857Z,10.14
2022-09-04T04:35:26.892Z,10.13
2022-09-04T04:38:05.991Z,10.14
2022-09-04T04:41:00.291Z,10.18
2022-09-04T04:43:39.436Z,10.21
2022-09-04T04:46:37.035Z,10.23
2022-09-04T04:49:39.630Z,10.27
2022-09-04T04:52:32.816Z,10.29
2022-09-04T04:55:31.228Z,10.31
2022-09-04T04:58:08.120Z,10.34
2022-09-04T05:00:43.974Z,10.38
2022-09-04T05:03:28.261Z,10.42
2022-09-04T05:06:04.474Z,10.46
2022-09-04T05:09:03.263Z,10.50
2022-09-04T05:11:58.843Z,10.55
2022-09-04T05:14:48.883Z,10.60
2022-09-04T05:17:41.529Z,10.64
2022-09-04T05:20:35.583Z,10.69
2022-09-04T05:23:32.010Z,10.74
2022-09-04T05:26:17.349Z,10.78
2022-09-04T05:29:01.546Z,10.84
2022-09-04T05:31:50.997Z,10.88
2022-09-04T05:34:27.897Z,10.92
2022-09-04T05:37:03.706Z,10.96
2022-09-04T05:39:45.260Z,10.96
2022-09-04T05:42:34.081Z,11.08
2022-09-04T05:45:33.687Z,11.15
2022-09-04T05:48:19.395Z,11.19
2022-09-04T05:51:01.377Z,11.24
2022-09-04T05:53:53.369Z,11.29
2022-09-04T05:56:31.525Z,11.34
2022-09-04T05:59:20.387Z,11.42
2022-09-04T06:02:28.024Z,11.43
2022-09-04T06:05:21.578Z,11.54
2022-09-04T06:08:18.079Z,11.59
2022-09-04T06:10:57.078Z,11.62
2022-09-04T06:14:02.343Z,11.69
2022-09-04T06:17:00.296Z,11.74
2022-09-04T06:19:48.371Z,11.81
2022-09-04T06:22:36.651Z,11.85
2022-09-04T06:25:37.890Z,11.91
2022-09-04T06:28:26.331Z,11.96
2022-09-04T06:31:18.044Z,12.01
2022-09-04T06:34:09.489Z,12.08
2022-09-04T06:36:51.438Z,12.13
2022-09-04T06:39:53.557Z,12.21
2022-09-04T06:42:45.483Z,12.27
2022-09-04T06:45:42.349Z,12.33
2022-09-04T06:48:33.084Z,12.39
2022-09-04T06:51:27.289Z,12.45
2022-09-04T06:54:28.140Z,12.56
2022-09-04T06:57:24.441Z,12.63
2022-09-04T07:00:00.527Z,12.66
2022-09-04T07:02:52.849Z,12.74
2022-09-04T07:06:01.254Z,12.81
2022-09-04T07:08:53.087Z,12.89
2022-09-04T07:11:38.198Z,12.94
2022-09-04T07:14:17.270Z,13.00
2022-09-04T07:17:17.598Z,13.06
2022-09-04T07:20:08.103Z,13.14
2022-09-04T07:23:05.100Z,13.20
2022-09-04T07:26:12.827Z,13.28
2022-09-04T07:29:25.158Z,13.34
2022-09-04T07:32:21.235Z,13.40
2022-09-04T07:34:56.437Z,13.47
2022-09-04T07:37:40.222Z,13.51
2022-09-04T07:40:30.804Z,13.59
2022-09-04T07:43:13.597Z,13.65
2022-09-04T07:45:55.327Z,13.70
2022-09-04T07:48:36.596Z,13.80
2022-09-04T07:51:12.318Z,13.86
2022-09-04T07:54:13.488Z,13.96
2022-09-04T07:57:11.970Z,14.04
2022-09-04T08:00:00.227Z,14.08
2022-09-04T08:02:48.917Z,14.15
2022-09-04T08:05:33.019Z,14.24
2022-09-04T08:08:34.530Z,14.32
2022-09-04T08:11:26.836Z,14.40
2022-09-04T08:14:19.318Z,14.45
2022-09-04T08:16:57.022Z,14.49
2022-09-04T08:19:43.209Z,14.55
2022-09-04T08:22:22.973Z,14.65
2022-09-04T08:25:24.353Z,14.69
2022-09-04T08:28:17.790Z,14.73
2022-09-04T08:31:06.506Z,14.82
2022-09-04T08:34:00.741Z,14.88
2022-09-04T08:36:55.779Z,14.93
2022-09-04T08:39:55.346Z,14.98
2022-09-04T08:43:04.271Z,15.02
2022-09-04T08:45:43.610Z,15.10
2022-09-04T08:48:49.743Z,15.13
2022-09-04T08:51:51.565Z,15.22
2022-09-04T08:54:37.732Z,15.29
2022-09-04T08:57:23.500Z,15.37
2022-09-04T09:00:14.386Z,15.46
2022-09-04T09:03:21.811Z,15.53
2022-09-04T09:05:57.832Z,15.57
2022-09-04T09:08:39.895Z,15.64
2022-09-04T09:11:39.287Z,15.70
2022-09-04T09:14:51.028Z,15.78
2022-09-04T09:17:44.434Z,15.87
2022-09-04T09:20:37.333Z,15.97
2022-09-04T09:23:18.678Z,16.02
2022-09-04T09:25:53.315Z,16.08
2022-09-04T09:28:35.835Z,16.12
2022-09-04T09:31:27.311Z,16.16
2022-09-04T09:34:15.916Z,16.18
2022-09-04T09:37:10.847Z,16.29
2022-09-04T09:40:03.898Z,16.38
2022-09-04T09:42:43.584Z,16.42
2022-09-04T09:45:45.980Z,16.50
2022-09-04T09:48:45.490Z,16.60
2022-09-04T09:51:48.208Z,16.62
2022-09-04T09:54:55.553Z,16.71
2022-09-04T09:58:01.720Z,16.76
2022-09-04T10:01:01.181Z,16.86
2022-09-04T10:03:39.838Z,16.94
2022-09-04T10:06:29.747Z,17.02
2022-09-04T10:09:25.762Z,17.09
2022-09-04T10:12:14.383Z,17.19
2022-09-04T10:15:02.750Z,17.26
2022-09-04T10:17:50.845Z,17.35
2022-09-04T10:20:59.035Z,17.44
2022-09-04T10:23:49.498Z,17.48
2022-09-04T10:26:39.524Z,17.60
2022-09-04T10:29:33.705Z,17.67
2022-09-04T10:32:12.938Z,17.75
2022-09-04T10:35:01.126Z,17.79
2022-09-04T10:37:51.521Z,17.85
2022-09-04T10:40:49.301Z,17.89
2022-09-04T10:43:57.707Z,17.95
2022-09-04T10:46:52.476Z,18.02
2022-09-04T10:49:37.525Z,18.08
2022-09-04T10:52:30.594Z,18.15
2022-09-04T10:55:07.225Z,18.20
2022-09-04T10:58:11.149Z,18.26
2022-09-04T11:01:05.696Z,18.36
2022-09-04T11:04:27.363Z,18.44
2022-09-04T11:07:17.072Z,18.52
2022-09-04T11:10:21.498Z,18.54
2022-09-04T11:13:12.735Z,18.60
2022-09-04T11:16:10.168Z,18.65
2022-09-04T11:18:53.664Z,18.80
2022-09-04T11:21:56.537Z,18.78
2022-09-04T11:24:45.094Z,18.83
2022-09-04T11:27:52.036Z,18.88
2022-09-04T11:30:26.976Z,18.93
2022-09-04T11:33:37.481Z,19.00
2022-09-04T11:36:22.630Z,19.08
2022-09-04T11:39:07.776Z,19.13
2022-09-04T11:42:13.464Z,19.18
2022-09-04T11:45:05.911Z,19.24
2022-09-04T11:48:12.745Z,19.26
2022-09-04T11:51:04.280Z,19.26
2022-09-04T11:54:01.878Z,19.33
2022-09-04T11:57:01.591Z,19.38
2022-09-04T12:00:01.192Z,19.39
2022-09-04T12:02:40.339Z,19.48
2022-09-04T12:05:57.970Z,19.64
2022-09-04T12:08:49.182Z,19.73
2022-09-04T12:11:40.858Z,19.87
2022-09-04T12:14:32.366Z,19.94
2022-09-04T12:17:30.244Z,20.02
2022-09-04T12:20:26.159Z,20.09
2022-09-04T12:23:30.974Z,20.13
2022-09-04T12:26:11.509Z,20.24
2022-09-04T12:29:06.729Z,20.35
2022-09-04T12:32:13.631Z,20.47
2022-09-04T12:34:58.999Z,20.53
2022-09-04T12:38:02.754Z,20.64
2022-09-04T12:41:02.343Z,20.71
2022-09-04T12:43:50.326Z,20.79
2022-09-04T12:46:50.435Z,20.86
2022-09-04T12:49:45.284Z,20.95
2022-09-04T12:52:40.870Z,21.06
2022-09-04T12:55:14.899Z,21.09
2022-09-04T12:58:07.917Z,21.13
2022-09-04T13:01:08.815Z,21.09
2022-09-04T13:03:56.005Z,21.08
2022-09-04T13:06:44.688Z,21.23
2022-09-04T13:09:32.997Z,21.31
2022-09-04T13:12:15.870Z,21.37
2022-09-04T13:15:01.057Z,21.48
2022-09-04T13:18:11.350Z,21.63
2022-09-04T13:21:05.666Z,21.70
2022-09-04T13:23:46.369Z,21.78
2022-09-04T13:26:47.995Z,21.86
2022-09-04T13:29:51.718Z,21.98
2022-09-04T13:32:39.753Z,22.00
2022-09-04T13:35:28.244Z,22.15
2022-09-04T13:38:17.438Z,22.17
2022-09-04T13:41:16.395Z,22.19
2022-09-04T13:44:10.959Z,22.12
2022-09-04T13:46:49.167Z,22.08
2022-09-04T13:49:30.281Z,22.12
2022-09-04T13:52:07.569Z,21.90
2022-09-04T13:54:53.084Z,21.65
2022-09-04T13:57:29.785Z,21.73
2022-09-04T14:00:08.305Z,21.73
2022-09-04T14:02:40.033Z,21.47
2022-09-04T14:05:16.217Z,21.41
2022-09-04T14:07:51.707Z,21.45
2022-09-04T14:10:34.180Z,21.56
2022-09-04T14:13:35.032Z,21.75
2022-09-04T14:16:11.784Z,21.87
2022-09-04T14:19:12.271Z,21.96
2022-09-04T14:21:55.464Z,22.01
2022-09-04T14:24:47.030Z,22.08
2022-09-04T14:27:26.326Z,21.96
2022-09-04T14:30:07.462Z,22.01
2022-09-04T14:32:58.139Z,22.10
2022-09-04T14:35:47.087Z,22.16
2022-09-04T14:38:20.532Z,22.14
2022-09-04T14:40:53.517Z,22.22
2022-09-04T14:43:35.660Z,22.31
2022-09-04T14:46:28.900Z,22.30
2022-09-04T14:49:04.798Z,22.10
2022-09-04T14:51:44.111Z,22.11
2022-09-04T14:54:24.849Z,22.09
2022-09-04T14:57:12.445Z,22.01
2022-09-04T14:59:51.909Z,21.95
2022-09-04T15:02:48.127Z,21.89
2022-09-04T15:05:34.332Z,21.73
2022-09-04T15:08:08.275Z,21.65
2022-09-04T15:10:50.806Z,21.67
2022-09-04T15:13:31.474Z,21.69
2022-09-04T15:16:10.070Z,21.66
2022-09-04T15:18:40.942Z,21.67
2022-09-04T15:21:21.362Z,21.71
2022-09-04T15:24:00.991Z,21.75
2022-09-04T15:26:47.099Z,21.79
2022-09-04T15:29:36.740Z,21.77
2022-09-04T15:32:13.684Z,21.71
2022-09-04T15:34:44.289Z,21.60
2022-09-04T15:37:22.569Z,21.54
2022-09-04T15:40:21.298Z,21.55
2022-09-04T15:43:21.360Z,21.56
2022-09-04T15:45:51.558Z,21.48
2022-09-04T15:48:33.661Z,21.34
2022-09-04T15:51:13.041Z,21.41
2022-09-04T15:54:10.466Z,21.45
2022-09-04T15:57:06.419Z,21.41
2022-09-04T15:59:46.548Z,21.30
2022-09-04T16:02:36.502Z,21.19
2022-09-04T16:05:23.953Z,21.11
2022-09-04T16:08:33.372Z,21.10
2022-09-04T16:11:11.921Z,21.22
2022-09-04T16:13:53.030Z,21.21
2022-09-04T16:16:28.724Z,21.39
2022-09-04T16:19:02.423Z,21.57
2022-09-04T16:21:50.153Z,21.86
2022-09-04T16:24:33.671Z,22.22
2022-09-04T16:27:09.003Z,22.44
2022-09-04T16:30:07.158Z,22.54
2022-09-04T16:32:47.126Z,22.62
2022-09-04T16:35:21.620Z,22.52
2022-09-04T16:37:54.454Z,22.31
2022-09-04T16:40:40.643Z,21.90
2022-09-04T16:43:34.598Z,21.53
2022-09-04T16:46:12.361Z,21.47
2022-09-04T16:49:03.632Z,21.30
2022-09-04T16:51:45.869Z,20.91
2022-09-04T16:54:49.298Z,20.49
2022-09-04T16:57:26.584Z,20.16
2022-09-04T17:00:01.492Z,19.91
2022-09-04T17:02:56.641Z,19.61
2022-09-04T17:05:55.926Z,19.34
2022-09-04T17:08:37.331Z,19.08
2022-09-04T17:11:40.067Z,18.82
2022-09-04T17:14:20.085Z,18.59
2022-09-04T17:17:04.145Z,18.35
2022-09-04T17:19:44.083Z,18.08
2022-09-04T17:29:04.445Z,17.97
2022-09-04T17:29:08.241Z,17.77
2022-09-04T17:29:16.026Z,17.60
2022-09-04T17:33:35.539Z,17.35
2022-09-04T17:40:32.742Z,17.16
2022-09-04T17:40:37.720Z,16.99
2022-09-04T17:42:12.708Z,16.81
2022-09-04T17:44:57.208Z,16.65
2022-09-04T17:47:33.445Z,16.54
2022-09-04T17:50:12.067Z,16.43
2022-09-04T17:53:07.046Z,16.30
2022-09-04T17:55:55.237Z,16.17
2022-09-04T17:58:28.954Z,16.08
2022-09-04T18:01:15.356Z,15.96
2022-09-04T18:04:21.919Z,15.84
2022-09-04T18:07:28.881Z,15.73
2022-09-04T18:10:37.699Z,15.64
2022-09-04T18:13:36.664Z,15.54
2022-09-04T18:16:40.625Z,15.45
2022-09-04T18:19:48.626Z,15.37
2022-09-04T18:22:33.546Z,15.26
2022-09-04T18:25:17.789Z,15.18
2022-09-04T18:28:11.309Z,15.08
2022-09-04T18:37:12.974Z,14.98
2022-09-04T18:37:26.390Z,14.92
2022-09-04T18:37:45.634Z,14.81
2022-09-04T18:41:26.678Z,14.78
2022-09-04T18:50:28.112Z,14.60
2022-09-04T18:50:31.892Z,14.72
2022-09-04T18:50:46.123Z,14.64
2022-09-04T18:52:19.696Z,14.50
2022-09-04T18:54:54.766Z,14.45
2022-09-04T18:57:33.686Z,14.43
2022-09-04T19:00:11.021Z,14.37
2022-09-04T19:02:53.338Z,14.33
2022-09-04T19:05:36.456Z,14.22
2022-09-04T19:08:21.894Z,14.21
2022-09-04T19:11:01.392Z,14.16
2022-09-04T19:13:45.542Z,14.12
2022-09-04T19:16:26.481Z,14.07
2022-09-04T19:19:01.755Z,14.02
2022-09-04T19:21:44.414Z,13.97
2022-09-04T19:24:38.988Z,13.93
2022-09-04T19:27:27.476Z,13.89
2022-09-04T19:30:18.735Z,13.82
2022-09-04T19:33:00.572Z,13.82
2022-09-04T19:35:42.599Z,13.77
2022-09-04T19:45:54.825Z,13.75
2022-09-04T19:46:08.794Z,13.71
2022-09-04T19:46:25.901Z,13.67
2022-09-04T19:47:28.410Z,13.62
2022-09-04T19:53:19.442Z,13.59
2022-09-04T19:53:38.916Z,13.54
2022-09-04T19:57:31.611Z,13.50
2022-09-04T19:59:50.975Z,13.46
2022-09-04T20:02:33.325Z,13.43
2022-09-04T20:05:10.104Z,13.41
2022-09-04T20:07:55.397Z,13.37
2022-09-04T20:10:37.509Z,13.37
2022-09-04T20:13:40.496Z,13.34
2022-09-04T20:16:17.953Z,13.32
2022-09-04T20:19:02.539Z,13.28
2022-09-04T20:21:49.090Z,13.22
2022-09-04T20:24:41.000Z,13.22
2022-09-04T20:27:36.589Z,13.18
2022-09-04T20:30:12.881Z,13.15
2022-09-04T20:32:55.780Z,13.13
2022-09-04T20:35:39.252Z,13.10
2022-09-04T20:38:23.030Z,13.06
2022-09-04T20:41:08.396Z,13.01
2022-09-04T20:44:05.891Z,13.02
2022-09-04T20:52:44.078Z,12.97
2022-09-04T20:52:48.615Z,12.98
2022-09-04T20:53:09.134Z,12.89
2022-09-04T20:55:58.514Z,12.74
2022-09-04T21:03:12.774Z,12.88
2022-09-04T21:03:16.995Z,12.85
2022-09-04T21:05:41.335Z,12.81
2022-09-04T21:08:43.781Z,12.77
2022-09-04T21:11:39.325Z,12.74
2022-09-04T21:14:44.496Z,12.72
2022-09-04T21:17:34.777Z,12.68
2022-09-04T21:20:26.640Z,12.66
2022-09-04T21:24:03.663Z,12.64
2022-09-04T21:26:48.946Z,12.62
2022-09-04T21:29:34.370Z,12.58
2022-09-04T21:32:22.423Z,12.57
2022-09-04T21:35:25.346Z,12.54
2022-09-04T21:38:12.014Z,12.54
2022-09-04T21:41:08.113Z,12.50
2022-09-04T21:43:46.957Z,12.48
2022-09-04T21:46:44.127Z,12.45
2022-09-04T21:49:38.432Z,12.42
2022-09-04T21:52:32.863Z,12.21
2022-09-04T21:59:32.716Z,12.37
2022-09-04T22:02:35.290Z,12.35
2022-09-04T22:02:45.893Z,12.32
2022-09-04T22:04:56.148Z,12.31
2022-09-04T22:10:24.832Z,12.30
2022-09-04T22:13:42.211Z,12.30
2022-09-04T22:14:03.248Z,12.28
2022-09-04T22:16:42.778Z,12.24
2022-09-04T22:19:43.728Z,12.23
2022-09-04T22:22:55.196Z,12.24
2022-09-04T22:25:46.510Z,12.23
2022-09-04T22:28:38.386Z,12.20
2022-09-04T22:31:29.638Z,12.18
2022-09-04T22:34:42.123Z,12.16
2022-09-04T22:37:12.378Z,12.15
2022-09-04T22:40:12.666Z,12.12
2022-09-04T22:43:04.725Z,12.11
2022-09-04T22:46:16.556Z,12.06
2022-09-04T22:49:12.957Z,12.04
2022-09-04T22:52:02.018Z,12.04
2022-09-04T22:55:23.034Z,12.04
2022-09-04T22:58:16.979Z,12.05
2022-09-04T23:01:06.510Z,12.02
2022-09-04T23:04:04.343Z,12.02
2022-09-04T23:13:41.886Z,11.96
2022-09-04T23:13:49.988Z,11.97
2022-09-04T23:14:06.376Z,11.94
2022-09-04T23:16:52.384Z,11.95
2022-09-04T23:26:37.083Z,11.91
2022-09-04T23:26:44.140Z,11.92
2022-09-04T23:26:45.515Z,11.90
2022-09-04T23:29:21.329Z,11.92
2022-09-04T23:32:10.520Z,11.93
2022-09-04T23:35:14.741Z,11.87
2022-09-04T23:38:26.977Z,11.88
2022-09-04T23:41:20.780Z,11.89
2022-09-04T23:44:28.455Z,11.87
2022-09-04T23:47:48.002Z,11.85
2022-09-04T23:50:45.973Z,11.85
2022-09-04T23:53:22.258Z,11.82
2022-09-04T23:56:07.628Z,11.79
2022-09-04T23:59:07.936Z,11.78
